createdAt,value
2023-05-14T00:00:55.745Z,9.10
2023-05-14T00:03:22.402Z,10.55
2023-05-14T00:05:49.043Z,16.95
2023-05-14T00:08:15.714Z,7.95
2023-05-14T00:10:42.330Z,7.72
2023-05-14T00:13:08.921Z,8.30
2023-05-14T00:15:35.524Z,8.45
2023-05-14T00:18:02.216Z,8.00
2023-05-14T00:20:29.097Z,9.70
2023-05-14T00:22:55.713Z,14.15
2023-05-14T00:25:22.316Z,17.65
2023-05-14T00:27:50.826Z,9.68
2023-05-14T00:30:17.487Z,9.27
2023-05-14T00:32:44.188Z,15.00
2023-05-14T00:35:11.076Z,7.22
2023-05-14T00:37:37.744Z,10.30
2023-05-14T00:40:04.606Z,12.45
2023-05-14T00:42:31.280Z,9.80
2023-05-14T00:44:57.888Z,8.68
2023-05-14T00:47:24.714Z,9.13
2023-05-14T00:49:51.632Z,9.45
2023-05-14T00:52:18.241Z,7.85
2023-05-14T00:54:48.268Z,9.00
2023-05-14T00:57:14.974Z,7.82
2023-05-14T00:59:41.662Z,10.00
2023-05-14T01:02:08.322Z,9.90
2023-05-14T01:04:38.091Z,9.85
2023-05-14T01:07:23.484Z,8.18
2023-05-14T01:09:55.358Z,7.88
2023-05-14T01:14:51.619Z,7.57
2023-05-14T01:17:19.083Z,8.80
2023-05-14T01:19:46.960Z,10.05
2023-05-14T01:22:13.773Z,9.93
2023-05-14T01:24:40.775Z,10.48
2023-05-14T01:27:10.794Z,7.78
2023-05-14T01:29:41.171Z,9.85
2023-05-14T01:32:08.472Z,8.43
2023-05-14T01:34:36.483Z,9.50
2023-05-14T01:37:04.333Z,9.82
2023-05-14T01:39:31.081Z,10.02
2023-05-14T01:42:00.530Z,8.90
2023-05-14T01:44:27.259Z,9.98
2023-05-14T01:46:53.833Z,11.95
2023-05-14T01:49:20.399Z,11.95
2023-05-14T01:51:47.022Z,9.02
2023-05-14T01:54:13.635Z,12.82
2023-05-14T01:56:40.322Z,14.20
2023-05-14T01:59:06.898Z,11.88
2023-05-14T02:01:33.619Z,8.60
2023-05-14T02:04:00.324Z,11.27
2023-05-14T02:06:27.085Z,12.27
2023-05-14T02:08:56.206Z,11.55
2023-05-14T02:11:22.839Z,10.95
2023-05-14T02:13:49.468Z,8.70
2023-05-14T02:16:16.120Z,11.85
2023-05-14T02:18:42.718Z,11.75
2023-05-14T02:21:09.341Z,11.35
2023-05-14T02:23:41.596Z,11.30
2023-05-14T02:26:09.801Z,10.23
2023-05-14T02:28:38.897Z,12.73
2023-05-14T02:31:05.641Z,9.80
2023-05-14T02:33:34.203Z,11.48
2023-05-14T02:36:02.941Z,10.20
2023-05-14T02:38:29.531Z,13.40
2023-05-14T02:40:56.127Z,7.68
2023-05-14T02:43:27.780Z,10.65
2023-05-14T02:45:54.418Z,10.98
2023-05-14T02:48:21.003Z,12.98
2023-05-14T02:50:48.393Z,12.00
2023-05-14T02:53:14.978Z,7.40
2023-05-14T02:55:41.575Z,11.63
2023-05-14T02:58:08.181Z,12.45
2023-05-14T03:00:34.831Z,11.20
2023-05-14T03:03:01.631Z,11.18
2023-05-14T03:05:34.056Z,10.73
2023-05-14T03:10:27.160Z,10.90
2023-05-14T03:12:57.261Z,10.65
2023-05-14T03:15:23.823Z,11.27
2023-05-14T03:17:58.359Z,11.93
2023-05-14T03:20:28.541Z,12.68
2023-05-14T03:22:55.248Z,12.20
2023-05-14T03:25:21.869Z,9.10
2023-05-14T03:27:48.457Z,9.35
2023-05-14T03:30:15.120Z,9.50
2023-05-14T03:32:41.780Z,11.63
2023-05-14T03:35:08.636Z,8.57
2023-05-14T03:37:35.298Z,10.68
2023-05-14T03:40:01.925Z,11.60
2023-05-14T03:42:33.033Z,9.30
2023-05-14T03:44:59.679Z,8.82
2023-05-14T03:47:26.301Z,9.18
2023-05-14T03:49:56.927Z,9.68
2023-05-14T03:52:24.694Z,9.88
2023-05-14T03:54:54.078Z,12.05
2023-05-14T03:57:20.678Z,10.05
2023-05-14T03:59:51.089Z,10.95
2023-05-14T04:02:19.013Z,9.82
2023-05-14T04:04:45.824Z,9.43
2023-05-14T04:07:14.249Z,9.10
2023-05-14T04:09:40.904Z,13.75
2023-05-14T04:12:07.872Z,10.48
2023-05-14T04:14:34.499Z,11.52
2023-05-14T04:17:05.640Z,10.82
2023-05-14T04:19:33.177Z,9.57
2023-05-14T04:21:59.799Z,8.57
2023-05-14T04:24:28.971Z,10.68
2023-05-14T04:26:55.568Z,8.57
2023-05-14T04:29:25.319Z,9.45
2023-05-14T04:32:00.197Z,10.10
2023-05-14T04:34:27.444Z,8.82
2023-05-14T04:36:55.200Z,9.88
2023-05-14T04:39:21.777Z,8.95
2023-05-14T04:41:54.921Z,9.90
2023-05-14T04:44:24.336Z,9.32
2023-05-14T04:46:50.922Z,10.93
2023-05-14T04:49:17.552Z,9.48
2023-05-14T04:51:44.128Z,9.43
2023-05-14T04:54:11.076Z,10.00
2023-05-14T04:56:37.672Z,9.00
2023-05-14T04:59:04.271Z,10.38
2023-05-14T05:01:35.833Z,10.30
2023-05-14T05:04:02.955Z,10.27
2023-05-14T05:06:29.645Z,11.15
2023-05-14T05:08:56.321Z,10.57
2023-05-14T05:11:22.928Z,8.63
2023-05-14T05:13:49.614Z,10.60
2023-05-14T05:16:16.530Z,11.30
2023-05-14T05:18:43.187Z,7.45
2023-05-14T05:21:09.793Z,8.10
2023-05-14T05:23:36.357Z,6.75
2023-05-14T05:26:03.170Z,9.85
2023-05-14T05:28:32.831Z,10.63
2023-05-14T05:30:59.435Z,8.55
2023-05-14T05:33:26.169Z,9.48
2023-05-14T05:35:55.690Z,8.52
2023-05-14T05:38:23.307Z,9.00
2023-05-14T05:40:49.935Z,7.35
2023-05-14T05:43:18.495Z,7.93
2023-05-14T05:45:45.129Z,7.07
2023-05-14T05:48:11.953Z,8.15
2023-05-14T05:50:38.526Z,8.00
2023-05-14T05:53:05.130Z,6.40
2023-05-14T05:55:33.873Z,6.30
2023-05-14T05:58:02.843Z,7.70
2023-05-14T06:00:29.593Z,6.63
2023-05-14T06:02:56.342Z,6.20
2023-05-14T06:05:23.126Z,6.68
2023-05-14T06:07:50.210Z,6.53
2023-05-14T06:10:16.827Z,6.53
2023-05-14T06:12:54.440Z,6.03
2023-05-14T06:15:21.828Z,7.25
2023-05-14T06:17:48.590Z,7.20
2023-05-14T06:20:15.338Z,5.95
2023-05-14T06:22:42.089Z,7.97
2023-05-14T06:25:08.939Z,7.38
2023-05-14T06:27:38.911Z,6.13
2023-05-14T06:30:05.946Z,8.23
2023-05-14T06:32:32.589Z,7.30
2023-05-14T06:34:59.216Z,6.30
2023-05-14T06:37:25.841Z,7.00
2023-05-14T06:39:57.002Z,7.32
2023-05-14T06:44:51.331Z,6.45
2023-05-14T06:47:17.927Z,5.30
2023-05-14T06:49:44.528Z,5.70
2023-05-14T06:52:11.448Z,5.35
2023-05-14T06:54:38.091Z,6.20
2023-05-14T06:57:04.829Z,5.40
2023-05-14T06:59:31.534Z,4.50
2023-05-14T07:01:58.929Z,6.13
2023-05-14T07:04:25.697Z,8.02
2023-05-14T07:06:52.318Z,6.45
2023-05-14T07:09:19.007Z,4.50
2023-05-14T07:11:52.060Z,5.22
2023-05-14T07:14:19.585Z,4.28
2023-05-14T07:16:52.748Z,6.15
2023-05-14T07:19:20.250Z,4.63
2023-05-14T07:21:47.103Z,3.80
2023-05-14T07:24:13.739Z,5.47
2023-05-14T07:26:40.327Z,5.22
2023-05-14T07:29:07.446Z,3.58
2023-05-14T07:31:34.143Z,5.70
2023-05-14T07:34:00.865Z,4.25
2023-05-14T07:36:27.800Z,4.93
2023-05-14T07:38:54.565Z,4.05
2023-05-14T07:41:23.829Z,5.90
2023-05-14T07:43:50.419Z,4.50
2023-05-14T07:46:17.158Z,5.55
2023-05-14T07:48:49.077Z,4.43
2023-05-14T07:53:42.464Z,5.50
2023-05-14T07:56:09.053Z,4.30
2023-05-14T07:58:35.842Z,4.47
2023-05-14T08:01:03.558Z,5.70
2023-05-14T08:03:30.364Z,4.93
2023-05-14T08:05:57.247Z,4.13
2023-05-14T08:08:23.845Z,3.70
2023-05-14T08:10:52.112Z,4.90
2023-05-14T08:13:18.738Z,6.60
2023-05-14T08:15:45.397Z,4.28
2023-05-14T08:18:12.099Z,4.80
2023-05-14T08:20:38.725Z,4.03
2023-05-14T08:23:05.421Z,4.15
2023-05-14T08:25:32.090Z,5.13
2023-05-14T08:27:58.797Z,4.53
2023-05-14T08:30:26.355Z,3.67
2023-05-14T08:32:53.451Z,4.13
2023-05-14T08:35:20.134Z,3.45
2023-05-14T08:37:48.324Z,3.63
2023-05-14T08:40:14.925Z,5.05
2023-05-14T08:42:41.519Z,5.15
2023-05-14T08:45:11.571Z,4.63
2023-05-14T08:47:38.228Z,3.50
2023-05-14T08:50:07.359Z,3.50
2023-05-14T08:52:34.717Z,3.33
2023-05-14T08:55:03.756Z,4.30
2023-05-14T08:57:35.273Z,3.05
2023-05-14T09:00:02.719Z,3.45
2023-05-14T09:05:14.031Z,5.32
2023-05-14T09:07:41.303Z,3.70
2023-05-14T09:10:08.157Z,2.83
2023-05-14T09:12:34.681Z,3.80
2023-05-14T09:15:03.841Z,3.25
2023-05-14T09:17:30.395Z,2.40
2023-05-14T09:19:56.965Z,2.60
2023-05-14T09:22:23.524Z,3.85
2023-05-14T09:25:02.194Z,2.53
2023-05-14T09:27:29.639Z,2.15
2023-05-14T09:29:57.347Z,2.60
2023-05-14T09:32:23.871Z,2.10
2023-05-14T09:34:50.376Z,2.22
2023-05-14T09:37:17.378Z,2.78
2023-05-14T09:39:43.865Z,4.13
2023-05-14T09:42:13.388Z,2.25
2023-05-14T09:44:39.940Z,2.50
2023-05-14T09:47:06.636Z,4.13
2023-05-14T09:49:33.923Z,4.13
2023-05-14T09:52:03.269Z,2.60
2023-05-14T09:54:30.114Z,2.70
2023-05-14T09:56:56.787Z,3.25
2023-05-14T09:59:23.459Z,3.80
2023-05-14T10:01:50.094Z,3.15
2023-05-14T10:04:16.956Z,2.67
2023-05-14T10:06:55.292Z,4.18
2023-05-14T10:09:22.469Z,3.67
2023-05-14T10:11:53.609Z,4.13
2023-05-14T10:14:23.052Z,3.13
2023-05-14T10:16:57.644Z,4.30
2023-05-14T10:19:24.811Z,4.38
2023-05-14T10:22:01.133Z,3.63
2023-05-14T10:24:27.936Z,4.75
2023-05-14T10:26:54.605Z,4.47
2023-05-14T10:29:31.519Z,3.90
2023-05-14T10:31:59.596Z,4.47
2023-05-14T10:34:44.465Z,5.78
2023-05-14T10:37:12.834Z,4.75
2023-05-14T10:39:45.822Z,3.63
2023-05-14T10:42:13.451Z,6.78
2023-05-14T10:44:43.006Z,4.90
2023-05-14T10:47:09.671Z,4.63
2023-05-14T10:49:43.546Z,4.57
2023-05-14T10:52:11.951Z,4.97
2023-05-14T10:54:38.661Z,4.10
2023-05-14T10:57:15.700Z,4.82
2023-05-14T10:59:52.964Z,4.18
2023-05-14T11:02:27.485Z,4.55
2023-05-14T11:04:58.625Z,4.05
2023-05-14T11:07:28.041Z,4.30
2023-05-14T11:09:57.859Z,3.45
2023-05-14T11:12:24.489Z,4.43
2023-05-14T11:14:51.013Z,6.68
2023-05-14T11:17:17.808Z,4.90
2023-05-14T11:19:44.652Z,3.78
2023-05-14T11:22:13.945Z,4.50
2023-05-14T11:24:43.338Z,3.70
2023-05-14T11:27:10.573Z,7.15
2023-05-14T11:29:37.767Z,5.70
2023-05-14T11:32:06.252Z,7.60
2023-05-14T11:34:33.086Z,5.53
2023-05-14T11:36:59.589Z,3.25
2023-05-14T11:39:33.412Z,5.95
2023-05-14T11:42:02.533Z,4.10
2023-05-14T11:44:29.091Z,4.22
2023-05-14T11:46:58.721Z,6.25
2023-05-14T11:49:28.569Z,4.32
2023-05-14T11:51:58.842Z,4.05
2023-05-14T11:54:28.546Z,5.18
2023-05-14T11:56:55.735Z,6.50
2023-05-14T11:59:25.879Z,4.72
2023-05-14T12:01:52.390Z,3.70
2023-05-14T12:04:19.638Z,4.43
2023-05-14T12:06:46.188Z,4.03
2023-05-14T12:09:22.298Z,4.90
2023-05-14T12:11:55.007Z,3.15
2023-05-14T12:14:23.422Z,3.63
2023-05-14T12:16:58.163Z,2.72
2023-05-14T12:19:25.912Z,4.90
2023-05-14T12:21:52.545Z,2.58
2023-05-14T12:24:19.156Z,2.63
2023-05-14T12:26:46.780Z,2.53
2023-05-14T12:29:15.803Z,2.45
2023-05-14T12:31:46.028Z,5.75
2023-05-14T12:34:14.806Z,4.20
2023-05-14T12:36:41.375Z,4.28
2023-05-14T12:39:11.037Z,2.45
2023-05-14T12:41:44.675Z,2.30
2023-05-14T12:44:11.962Z,2.35
2023-05-14T12:46:38.571Z,3.70
2023-05-14T12:49:05.304Z,2.78
2023-05-14T12:51:32.213Z,2.60
2023-05-14T12:53:58.765Z,2.25
2023-05-14T12:56:28.354Z,2.28
2023-05-14T12:58:57.852Z,4.00
2023-05-14T13:01:24.762Z,2.35
2023-05-14T13:03:51.510Z,2.10
2023-05-14T13:06:18.038Z,2.10
2023-05-14T13:08:48.022Z,2.58
2023-05-14T13:11:14.946Z,2.63
2023-05-14T13:13:41.487Z,2.28
2023-05-14T13:16:08.123Z,2.08
2023-05-14T13:18:34.764Z,2.05
2023-05-14T13:21:01.893Z,1.70
2023-05-14T13:23:31.230Z,2.22
2023-05-14T13:25:59.122Z,3.42
2023-05-14T13:28:28.207Z,2.40
2023-05-14T13:31:11.038Z,2.35
2023-05-14T13:33:38.815Z,1.75
2023-05-14T13:36:08.658Z,3.33
2023-05-14T13:38:35.223Z,2.45
2023-05-14T13:41:04.779Z,2.80
2023-05-14T13:43:34.730Z,2.67
2023-05-14T13:46:01.689Z,2.00
2023-05-14T13:48:28.330Z,2.88
2023-05-14T13:50:54.938Z,2.28
2023-05-14T13:53:25.052Z,2.47
2023-05-14T13:55:51.561Z,2.55
2023-05-14T13:58:18.118Z,2.35
2023-05-14T14:00:44.899Z,2.97
2023-05-14T14:03:14.397Z,2.00
2023-05-14T14:05:40.991Z,3.17
2023-05-14T14:08:21.904Z,2.05
2023-05-14T14:13:16.966Z,2.33
2023-05-14T14:15:43.551Z,2.22
2023-05-14T14:18:10.299Z,1.77
2023-05-14T14:20:36.896Z,1.83
2023-05-14T14:23:03.447Z,2.00
2023-05-14T14:25:30.023Z,2.38
2023-05-14T14:27:59.533Z,2.00
2023-05-14T14:30:26.081Z,2.47
2023-05-14T14:32:52.763Z,3.55
2023-05-14T14:35:23.699Z,3.67
2023-05-14T14:37:50.697Z,1.95
2023-05-14T14:40:17.327Z,2.28
2023-05-14T14:42:46.731Z,2.70
2023-05-14T14:45:13.762Z,2.30
2023-05-14T14:47:43.622Z,1.80
2023-05-14T14:50:12.493Z,1.70
2023-05-14T14:52:42.370Z,1.80
2023-05-14T14:55:12.947Z,2.75
2023-05-14T14:57:49.367Z,2.50
2023-05-14T15:00:17.723Z,2.75
2023-05-14T15:02:48.261Z,2.08
2023-05-14T15:05:14.932Z,2.38
2023-05-14T15:07:45.477Z,2.88
2023-05-14T15:10:12.338Z,4.28
2023-05-14T15:12:38.968Z,2.90
2023-05-14T15:15:05.751Z,2.38
2023-05-14T15:17:32.509Z,2.60
2023-05-14T15:20:04.298Z,3.08
2023-05-14T15:22:30.842Z,7.80
2023-05-14T15:24:59.596Z,2.17
2023-05-14T15:27:26.316Z,3.60
2023-05-14T15:29:53.378Z,2.03
2023-05-14T15:32:20.308Z,2.92
2023-05-14T15:34:46.877Z,2.40
2023-05-14T15:37:14.831Z,1.98
2023-05-14T15:39:41.600Z,2.00
2023-05-14T15:42:08.520Z,2.22
2023-05-14T15:44:37.369Z,2.40
2023-05-14T15:47:05.375Z,3.65
2023-05-14T15:49:34.485Z,2.75
2023-05-14T15:52:03.237Z,3.88
2023-05-14T15:54:30.316Z,2.22
2023-05-14T15:56:56.980Z,5.05
2023-05-14T15:59:23.730Z,4.68
2023-05-14T16:01:51.611Z,2.30
2023-05-14T16:04:20.853Z,4.68
2023-05-14T16:06:47.432Z,2.30
2023-05-14T16:09:14.183Z,6.50
2023-05-14T16:11:40.873Z,2.85
2023-05-14T16:14:07.692Z,1.90
2023-05-14T16:16:34.544Z,3.92
2023-05-14T16:19:01.125Z,1.83
2023-05-14T16:21:27.720Z,3.45
2023-05-14T16:23:54.233Z,2.25
2023-05-14T16:26:20.822Z,5.40
2023-05-14T16:28:47.481Z,3.78
2023-05-14T16:31:14.143Z,2.33
2023-05-14T16:33:41.466Z,3.33
2023-05-14T16:36:08.016Z,3.05
2023-05-14T16:38:35.549Z,2.70
2023-05-14T16:41:05.828Z,2.22
2023-05-14T16:43:32.388Z,2.78
2023-05-14T16:45:58.951Z,2.45
2023-05-14T16:48:25.897Z,2.80
2023-05-14T16:50:52.693Z,2.65
2023-05-14T16:53:22.776Z,3.10
2023-05-14T16:55:49.628Z,2.05
2023-05-14T16:58:16.192Z,3.22
2023-05-14T17:00:43.061Z,3.97
2023-05-14T17:03:09.659Z,3.35
2023-05-14T17:05:36.244Z,2.42
2023-05-14T17:08:02.764Z,7.63
2023-05-14T17:10:35.342Z,4.85
2023-05-14T17:13:02.821Z,3.10
2023-05-14T17:15:32.080Z,7.20
2023-05-14T17:17:58.761Z,4.65
2023-05-14T17:20:26.932Z,3.00
2023-05-14T17:22:53.515Z,5.10
2023-05-14T17:25:25.538Z,2.00
2023-05-14T17:27:57.926Z,4.05
2023-05-14T17:30:24.929Z,5.25
2023-05-14T17:32:53.793Z,2.70
2023-05-14T17:35:20.376Z,3.78
2023-05-14T17:37:47.008Z,3.13
2023-05-14T17:40:13.630Z,3.13
2023-05-14T17:42:40.721Z,3.47
2023-05-14T17:45:07.752Z,3.88
2023-05-14T17:47:34.610Z,2.67
2023-05-14T17:50:03.005Z,2.30
2023-05-14T17:52:29.567Z,5.13
2023-05-14T17:54:56.198Z,2.30
2023-05-14T17:57:24.200Z,3.67
2023-05-14T17:59:56.042Z,3.20
2023-05-14T18:04:55.458Z,3.60
2023-05-14T18:07:24.009Z,3.78
2023-05-14T18:09:51.686Z,3.92
2023-05-14T18:12:18.296Z,4.18
2023-05-14T18:14:45.747Z,2.85
2023-05-14T18:17:14.433Z,2.50
2023-05-14T18:19:41.027Z,4.20
2023-05-14T18:22:08.344Z,4.93
2023-05-14T18:24:41.730Z,2.60
2023-05-14T18:27:09.286Z,3.22
2023-05-14T18:29:36.942Z,6.72
2023-05-14T18:32:07.630Z,5.30
2023-05-14T18:34:34.216Z,4.80
2023-05-14T18:37:00.953Z,4.45
2023-05-14T18:39:27.494Z,4.25
2023-05-14T18:41:54.045Z,4.15
2023-05-14T18:44:24.891Z,4.20
2023-05-14T18:46:51.731Z,4.97
2023-05-14T18:49:18.406Z,5.32
2023-05-14T18:51:47.595Z,6.00
2023-05-14T18:54:17.350Z,4.65
2023-05-14T18:56:46.036Z,3.45
2023-05-14T18:59:16.421Z,4.45
2023-05-14T19:01:46.524Z,5.30
2023-05-14T19:04:13.212Z,3.95
2023-05-14T19:06:41.743Z,3.38
2023-05-14T19:09:08.438Z,4.70
2023-05-14T19:11:35.042Z,3.42
2023-05-14T19:14:01.678Z,3.72
2023-05-14T19:16:31.162Z,4.00
2023-05-14T19:18:57.997Z,4.55
2023-05-14T19:21:26.908Z,4.63
2023-05-14T19:23:57.656Z,5.28
2023-05-14T19:26:29.231Z,4.57
2023-05-14T19:28:56.888Z,5.50
2023-05-14T19:31:23.464Z,9.95
2023-05-14T19:33:50.055Z,12.55
2023-05-14T19:36:16.707Z,7.97
2023-05-14T19:38:43.262Z,11.50
2023-05-14T19:41:09.844Z,11.43
2023-05-14T19:43:37.018Z,8.02
2023-05-14T19:46:06.392Z,8.35
2023-05-14T19:48:33.223Z,4.80
2023-05-14T19:50:59.952Z,5.05
2023-05-14T19:53:30.892Z,8.05
2023-05-14T19:55:57.555Z,4.38
2023-05-14T19:58:24.574Z,5.88
2023-05-14T20:00:56.181Z,4.40
2023-05-14T20:03:23.132Z,3.58
2023-05-14T20:05:49.931Z,5.13
2023-05-14T20:08:16.669Z,4.72
2023-05-14T20:10:43.287Z,7.93
2023-05-14T20:13:09.842Z,5.25
2023-05-14T20:15:39.553Z,5.88
2023-05-14T20:18:06.146Z,6.00
2023-05-14T20:20:33.476Z,5.18
2023-05-14T20:23:03.342Z,7.82
2023-05-14T20:25:30.153Z,6.82
2023-05-14T20:27:56.935Z,8.13
2023-05-14T20:30:23.527Z,6.43
2023-05-14T20:32:52.992Z,6.72
2023-05-14T20:35:22.229Z,7.63
2023-05-14T20:38:06.892Z,9.43
2023-05-14T20:40:35.980Z,7.78
2023-05-14T20:43:05.643Z,8.40
2023-05-14T20:45:36.177Z,7.18
2023-05-14T20:48:10.911Z,5.63
2023-05-14T20:50:38.333Z,5.82
2023-05-14T20:53:04.949Z,6.85
2023-05-14T20:55:34.106Z,10.20
2023-05-14T20:58:00.964Z,4.88
2023-05-14T21:00:29.530Z,5.95
2023-05-14T21:02:59.233Z,7.78
2023-05-14T21:05:26.330Z,6.65
2023-05-14T21:07:54.357Z,7.25
2023-05-14T21:10:20.938Z,6.22
2023-05-14T21:12:48.812Z,7.75
2023-05-14T21:15:15.398Z,5.50
2023-05-14T21:17:43.082Z,5.47
2023-05-14T21:20:12.197Z,4.88
2023-05-14T21:22:38.735Z,4.40
2023-05-14T21:25:05.941Z,6.10
2023-05-14T21:27:32.738Z,6.43
2023-05-14T21:29:59.334Z,5.03
2023-05-14T21:32:26.999Z,4.10
2023-05-14T21:34:55.819Z,4.75
2023-05-14T21:37:22.619Z,4.40
2023-05-14T21:39:50.079Z,4.35
2023-05-14T21:42:24.827Z,4.88
2023-05-14T21:45:01.172Z,6.25
2023-05-14T21:47:28.733Z,6.35
2023-05-14T21:49:56.905Z,5.93
2023-05-14T21:53:20.550Z,5.45
2023-05-14T21:55:18.795Z,6.15
2023-05-14T21:57:45.424Z,6.70
2023-05-14T22:00:25.042Z,6.47
2023-05-14T22:02:54.702Z,7.57
2023-05-14T22:05:21.712Z,6.82
2023-05-14T22:07:48.950Z,4.50
2023-05-14T22:10:16.081Z,5.65
2023-05-14T22:12:44.700Z,5.93
2023-05-14T22:15:21.997Z,9.30
2023-05-14T22:17:48.680Z,4.75
2023-05-14T22:20:15.274Z,9.23
2023-05-14T22:22:41.853Z,5.25
2023-05-14T22:25:08.595Z,5.95
2023-05-14T22:27:35.165Z,6.55
2023-05-14T22:30:01.758Z,7.47
2023-05-14T22:32:28.376Z,5.38
2023-05-14T22:34:54.942Z,5.95
2023-05-14T22:37:21.479Z,7.07
2023-05-14T22:39:48.017Z,9.65
2023-05-14T22:42:14.514Z,6.40
2023-05-14T22:44:41.032Z,6.50
2023-05-14T22:47:07.584Z,5.35
2023-05-14T22:49:36.654Z,6.82
2023-05-14T22:52:03.238Z,11.73
2023-05-14T22:54:29.820Z,8.27
2023-05-14T22:56:56.432Z,6.80
2023-05-14T22:59:23.825Z,6.30
2023-05-14T23:01:50.644Z,6.47
2023-05-14T23:04:17.260Z,4.93
2023-05-14T23:06:43.869Z,7.13
2023-05-14T23:09:10.427Z,5.30
2023-05-14T23:11:36.988Z,8.77
2023-05-14T23:14:03.599Z,5.35
2023-05-14T23:16:30.169Z,7.75
2023-05-14T23:18:56.933Z,5.53
2023-05-14T23:21:23.761Z,6.03
2023-05-14T23:23:50.292Z,4.47
2023-05-14T23:26:18.002Z,6.25
2023-05-14T23:28:47.523Z,3.65
2023-05-14T23:31:17.521Z,5.60
2023-05-14T23:33:44.068Z,4.35
2023-05-14T23:36:10.857Z,7.35
2023-05-14T23:38:37.582Z,5.38
2023-05-14T23:41:04.358Z,8.07
2023-05-14T23:43:31.019Z,4.53
2023-05-14T23:45:57.659Z,4.60
2023-05-14T23:48:24.200Z,5.47
2023-05-14T23:50:50.763Z,3.17
2023-05-14T23:53:17.509Z,4.43
2023-05-14T23:55:44.060Z,3.95
2023-05-14T23:58:10.618Z,6.38
